Philadelphia, PA (19106)

6:40 PM EDT on August 27, 2014 (GMT -0400)
Dickinson Narrows | Change Station
CLOSE
Current Station
Personal Weather Station
Location: Philadelphia, PA
Elevation: 33 ft
Nearby Weather Stations

Elev 33 ft 39.93 °N, 75.15 °W | Updated 1 second ago

Clear
Clear
87.8 °F
Feels Like 92 °F
N
0.0
Wind Variable Wind from SSW
Gusts 9.0 mph

Today
High -- | Low -- °F
--% Chance of Precip.
Yesterday
High -- | Low -- °F
Precip. -- in
6:23 AM 7:39 PM
Waxing Crescent, 5% visible
Pressure 29.91 in
Visibility 10.0 miles
Clouds Few 5500 ft
Heat Index 92 °F
Dew Point 69 °F
Humidity 54%
Rainfall 0.00 in
Snow Depth Not available.
UV 1 out of 12
Pollen 9.40 out of 12
Ozone Unhealthy for Sensitive Groups
PM2.5 Moderate
Flu Activity Not available.
METAR KPHL 272154Z 21009KT 10SM FEW055 31/18 A2991 RMK AO2 SLP127 T03110183

More Conditions Fewer Conditions

Pressure 29.91 in
Visibility 10.0 miles
Clouds Few 5500 ft
Heat Index 92 °F
Dew Point 69 °F
Humidity 54%
Rainfall 0.00 in
Snow Depth Not available.
UV 1 out of 12
Pollen 9.40 out of 12
Ozone Unhealthy for Sensitive Groups
PM2.5 Moderate
Flu Activity Not available.
METAR KPHL 272154Z 21009KT 10SM FEW055 31/18 A2991 RMK AO2 SLP127 T03110183

More Conditions Fewer Conditions

10-Day Weather Forecast

Almanac

Astronomy

Aug. 27, 2014 Rise Set
Actual Time 6:23 AM EDT 7:39 PM EDT
Civil Twilight 5:55 AM EDT 8:07 PM EDT
Nautical Twilight 5:21 AM EDT 8:41 PM EDT
Astronomical Twilight 4:46 AM EDT 9:16 PM EDT
Moon 8:17 AM EDT 8:30 PM EDT
Length of Visible Light 14h 12m
Length of Day
13h 16m
Tomorrow will be 2m 29s shorter.
Waxing Crescent, 5% of the Moon is Illuminated
Today
Waxing Crescent
Sep 2
First Quarter
Sep 8
Full
Sep 15
Last Quarter
Sep 24
New

Today's Extremes

State Highs State Lows

Community

WunderPhotos

Upload Photos

1,747,805 photos uploaded!

Nearby

Air Quality

  Air Quality AQ Index Pollutant
Yesterday Moderate
OZONE
Yesterday Moderate
PM2.5
Current Unhealthy for Sensitive Groups
OZONE
Current Moderate
PM2.5
Wednesday Unhealthy for Sensitive Groups
OZONE
Wednesday Moderate
PM2.5
Thursday Good
OZONE
Thursday Good
PM2.5
Friday Moderate
OZONE
Friday Good
PM2.5
Saturday Moderate
OZONE
Saturday Moderate
PM2.5

Snow Depth

Station Depth Elevation
No new snow has been reported.

Earthquake Activity

City Distance Mag. Time & Date
No recent earthquake activity has been reported nearby.
Minimum magnitude displayed is 2.5.

Coastal Water Temperatures

Place Temperature
Ship John Shoal, NJ 77.0 °F
Cape May, NJ 81.0 °F
Reedy Point, DE 79.0 °F
Delaware City, DE 79.0 °F
Marcus Hook, PA 80.1 °F

Nearby Weather Stations